Time;durP1;ratioP1;P1;durP2;ratioP2;P2;SDS_P1;SDS_P2;PMS_P1;PMS_P2;Temp;Humidity;BMP_temperature;BMP_pressure;BME280_temperature;BME280_humidity;BME280_pressure;Samples;Min_cycle;Max_cycle;Signal;HPM_P1;HPM_P2
2021/05/29 00:00:14;;;;;;;6.73;5.40;;;10.90;99.90;;;;;;5045834;28;20180;-69
2021/05/29 00:02:40;;;;;;;7.33;4.50;;;10.90;99.90;;;;;;5045568;28;21183;-69
2021/05/29 00:05:07;;;;;;;6.47;4.90;;;10.90;99.90;;;;;;5044072;28;20431;-69
2021/05/29 00:07:33;;;;;;;5.40;4.90;;;10.90;99.90;;;;;;5047131;28;20464;-69
2021/05/29 00:09:59;;;;;;;6.13;3.93;;;10.90;99.90;;;;;;5049252;28;20512;-69
2021/05/29 00:12:25;;;;;;;7.80;5.40;;;10.90;99.90;;;;;;5049826;28;20948;-69
2021/05/29 00:14:51;;;;;;;6.50;4.50;;;10.90;99.90;;;;;;5044121;28;20213;-69
2021/05/29 00:17:18;;;;;;;6.77;4.80;;;11.00;99.90;;;;;;5049623;28;20622;-69
2021/05/29 00:19:45;;;;;;;5.13;4.30;;;10.90;99.90;;;;;;5049713;28;21006;-69
2021/05/29 00:22:10;;;;;;;5.47;4.20;;;10.90;99.90;;;;;;5047936;28;20471;-69
2021/05/29 00:24:36;;;;;;;9.60;4.87;;;11.00;99.90;;;;;;5048855;28;20474;-69
2021/05/29 00:27:02;;;;;;;9.10;4.60;;;11.00;99.90;;;;;;5050548;28;20179;-69
2021/05/29 00:29:27;;;;;;;5.47;4.90;;;11.00;99.90;;;;;;5047693;28;20282;-69
2021/05/29 00:31:53;;;;;;;7.77;4.70;;;10.90;99.90;;;;;;5045125;28;20177;-69
2021/05/29 00:34:19;;;;;;;6.67;4.10;;;10.80;99.90;;;;;;5050180;28;20263;-68
2021/05/29 00:36:44;;;;;;;7.63;4.47;;;10.80;99.90;;;;;;5049824;28;20623;-69
2021/05/29 00:39:10;;;;;;;9.33;6.60;;;10.70;99.90;;;;;;5048021;28;20173;-69
2021/05/29 00:41:36;;;;;;;9.23;5.90;;;10.60;99.90;;;;;;5047637;28;20192;-69
2021/05/29 00:44:01;;;;;;;5.80;4.67;;;10.50;99.90;;;;;;5047847;28;20193;-68
2021/05/29 00:46:27;;;;;;;8.27;5.40;;;10.40;99.90;;;;;;5045814;28;20196;-69
2021/05/29 00:48:53;;;;;;;11.30;5.37;;;10.40;99.90;;;;;;5048024;28;20829;-68
2021/05/29 00:51:18;;;;;;;6.20;3.97;;;10.40;99.90;;;;;;5048087;28;20276;-68
2021/05/29 00:53:47;;;;;;;7.40;5.37;;;10.40;99.90;;;;;;5049052;28;20188;-69
2021/05/29 00:56:13;;;;;;;7.30;4.63;;;10.40;99.90;;;;;;5049521;28;20458;-68
2021/05/29 00:58:40;;;;;;;8.13;5.00;;;10.30;99.90;;;;;;5051863;28;20747;-69
2021/05/29 01:01:06;;;;;;;8.30;5.27;;;10.40;99.90;;;;;;5043584;28;21030;-69
2021/05/29 01:03:36;;;;;;;7.80;5.20;;;10.40;99.90;;;;;;5047419;28;20516;-68
2021/05/29 01:06:04;;;;;;;8.73;5.20;;;10.40;99.90;;;;;;5050490;28;20633;-69
2021/05/29 01:08:30;;;;;;;5.07;4.43;;;10.40;99.90;;;;;;5049840;28;20514;-68
2021/05/29 01:10:56;;;;;;;7.60;4.97;;;10.40;99.90;;;;;;5049146;28;20681;-68
2021/05/29 01:13:27;;;;;;;13.20;5.30;;;10.40;99.90;;;;;;5050207;28;20484;-68
2021/05/29 01:15:55;;;;;;;6.60;5.40;;;10.30;99.90;;;;;;5048386;28;20197;-69
2021/05/29 01:18:21;;;;;;;5.73;4.33;;;10.40;99.90;;;;;;5050608;28;20531;-68
2021/05/29 01:20:48;;;;;;;5.40;4.90;;;10.40;99.90;;;;;;5048761;28;20478;-69
2021/05/29 01:23:15;;;;;;;9.83;5.40;;;10.40;99.90;;;;;;5047474;28;20192;-69
2021/05/29 01:25:45;;;;;;;7.27;4.70;;;10.40;99.90;;;;;;5050058;28;20435;-68
2021/05/29 01:28:15;;;;;;;6.30;5.17;;;10.40;99.90;;;;;;5049314;28;20758;-69
2021/05/29 01:31:03;;;;;;;4.93;4.43;;;10.40;99.90;;;;;;5047677;28;20892;-68
2021/05/29 01:33:34;;;;;;;7.83;4.57;;;10.40;99.90;;;;;;5047610;28;20432;-69
2021/05/29 01:36:05;;;;;;;5.87;5.00;;;10.40;99.90;;;;;;5048014;28;20959;-69
2021/05/29 01:38:32;;;;;;;7.10;4.93;;;10.40;99.90;;;;;;5047676;28;20420;-69
2021/05/29 01:41:10;;;;;;;5.10;4.60;;;10.40;99.90;;;;;;5048874;28;20888;-69
2021/05/29 01:43:37;;;;;;;6.40;4.67;;;10.40;99.90;;;;;;5049635;28;20847;-68
2021/05/29 01:46:04;;;;;;;5.33;4.47;;;10.30;99.90;;;;;;5049056;28;20497;-68
2021/05/29 01:48:34;;;;;;;7.13;4.80;;;10.30;99.90;;;;;;5050608;28;20920;-68
2021/05/29 01:51:00;;;;;;;7.50;5.07;;;10.30;99.90;;;;;;5049832;28;20591;-69
2021/05/29 01:53:26;;;;;;;6.93;4.93;;;10.20;99.90;;;;;;5050252;28;20497;-68
2021/05/29 01:55:52;;;;;;;6.10;4.80;;;10.30;99.90;;;;;;5045598;28;20448;-68
2021/05/29 01:58:18;;;;;;;6.93;4.43;;;10.30;99.90;;;;;;5051620;28;20514;-68
2021/05/29 02:00:44;;;;;;;6.27;4.93;;;10.20;99.90;;;;;;5042688;28;20173;-69
2021/05/29 02:03:11;;;;;;;8.47;5.00;;;10.10;99.90;;;;;;5045037;28;20455;-68
2021/05/29 02:05:38;;;;;;;9.60;4.40;;;10.20;99.90;;;;;;5049432;28;20803;-68
2021/05/29 02:08:06;;;;;;;5.20;4.70;;;10.20;99.90;;;;;;5047859;28;20532;-68
2021/05/29 02:10:34;;;;;;;5.83;5.10;;;10.30;99.90;;;;;;5050960;28;20451;-68
2021/05/29 02:13:03;;;;;;;6.80;4.50;;;10.30;99.90;;;;;;5046026;28;20762;-69
2021/05/29 02:15:34;;;;;;;8.40;5.10;;;10.30;99.90;;;;;;5046330;28;20924;-69
2021/05/29 02:18:02;;;;;;;8.33;4.37;;;10.20;99.90;;;;;;5049470;28;20428;-68
2021/05/29 02:20:45;;;;;;;4.30;3.80;;;10.20;99.90;;;;;;5048866;28;20485;-69
2021/05/29 02:23:13;;;;;;;4.10;3.67;;;10.20;99.90;;;;;;5048327;28;20445;-69
2021/05/29 02:25:39;;;;;;;9.97;4.83;;;10.20;99.90;;;;;;5050350;28;20490;-69
2021/05/29 02:28:05;;;;;;;11.20;4.30;;;10.20;99.90;;;;;;5047268;28;20427;-69
2021/05/29 02:30:31;;;;;;;8.53;4.23;;;10.20;99.90;;;;;;5045869;28;20423;-68
2021/05/29 02:32:57;;;;;;;7.53;4.43;;;10.20;99.90;;;;;;5046669;28;20469;-69
2021/05/29 02:35:22;;;;;;;6.20;4.13;;;10.20;99.90;;;;;;5048338;28;20838;-68
2021/05/29 02:37:48;;;;;;;5.73;4.80;;;10.20;99.90;;;;;;5050286;28;20248;-68
2021/05/29 02:40:14;;;;;;;5.23;4.27;;;10.20;99.90;;;;;;5046351;28;20173;-69
2021/05/29 02:42:40;;;;;;;6.93;5.83;;;10.20;99.90;;;;;;5048136;28;20181;-69
2021/05/29 02:45:06;;;;;;;6.97;5.10;;;10.20;99.90;;;;;;5048515;28;20431;-69
2021/05/29 02:47:32;;;;;;;4.87;4.40;;;10.20;99.90;;;;;;5046558;28;20268;-68
2021/05/29 02:49:58;;;;;;;9.13;5.40;;;10.20;99.90;;;;;;5049717;28;20611;-68
2021/05/29 02:52:24;;;;;;;9.73;6.00;;;10.10;99.90;;;;;;5049114;28;20189;-68
2021/05/29 02:54:49;;;;;;;7.40;4.97;;;10.10;99.90;;;;;;5047587;28;20470;-69
2021/05/29 02:57:15;;;;;;;6.17;5.00;;;10.10;99.90;;;;;;5048480;28;20200;-68
2021/05/29 02:59:41;;;;;;;11.47;5.60;;;10.10;99.90;;;;;;5046007;28;20203;-69
2021/05/29 03:02:08;;;;;;;8.17;5.40;;;10.20;99.90;;;;;;5047783;28;20264;-68
2021/05/29 03:04:35;;;;;;;6.10;5.50;;;10.20;99.90;;;;;;5046944;28;20181;-68
2021/05/29 03:07:01;;;;;;;8.60;4.60;;;10.20;99.90;;;;;;5047637;28;21679;-69
2021/05/29 03:09:27;;;;;;;9.60;4.90;;;10.20;99.90;;;;;;5049894;28;20827;-68
2021/05/29 03:11:53;;;;;;;7.80;4.93;;;10.20;99.90;;;;;;5049040;28;20435;-69
2021/05/29 03:14:19;;;;;;;6.03;4.87;;;10.20;99.90;;;;;;5047252;28;20885;-68
2021/05/29 03:16:45;;;;;;;7.33;4.77;;;10.20;99.90;;;;;;5046608;28;20983;-68
2021/05/29 03:19:10;;;;;;;6.67;4.73;;;10.20;99.90;;;;;;5050391;28;20185;-69
2021/05/29 03:21:36;;;;;;;7.80;4.90;;;10.20;99.90;;;;;;5052460;28;20672;-69
2021/05/29 03:24:02;;;;;;;14.57;5.30;;;10.20;99.90;;;;;;5049789;28;20181;-68
2021/05/29 03:26:27;;;;;;;8.60;4.97;;;10.20;99.90;;;;;;5052888;28;20603;-68
2021/05/29 03:28:53;;;;;;;6.13;4.83;;;10.20;99.90;;;;;;5052607;28;20862;-69
2021/05/29 03:31:19;;;;;;;7.73;5.03;;;10.10;99.90;;;;;;5050218;28;20239;-69
2021/05/29 03:33:45;;;;;;;7.10;5.10;;;10.10;99.90;;;;;;5050840;28;20626;-69
2021/05/29 03:36:11;;;;;;;6.37;4.27;;;10.10;99.90;;;;;;5049740;28;20455;-68
2021/05/29 03:38:37;;;;;;;7.03;4.43;;;10.10;99.90;;;;;;5049041;28;20518;-69
2021/05/29 03:41:02;;;;;;;6.50;5.07;;;10.10;99.90;;;;;;5045805;28;20182;-68
2021/05/29 03:43:28;;;;;;;5.37;4.50;;;10.10;99.90;;;;;;5052557;28;20170;-68
2021/05/29 03:45:54;;;;;;;8.77;5.33;;;10.10;99.90;;;;;;5053358;28;20182;-68
2021/05/29 03:48:19;;;;;;;6.63;4.83;;;10.10;99.90;;;;;;5049782;28;20567;-68
2021/05/29 03:50:45;;;;;;;7.60;5.47;;;10.10;99.90;;;;;;5048391;28;20185;-68
2021/05/29 03:53:11;;;;;;;7.60;5.30;;;10.10;99.90;;;;;;5050822;28;20181;-69
2021/05/29 03:55:37;;;;;;;8.10;5.23;;;10.00;99.90;;;;;;5048084;28;20252;-69
2021/05/29 03:58:03;;;;;;;6.93;4.67;;;10.00;99.90;;;;;;5052690;28;20431;-69
2021/05/29 04:00:30;;;;;;;7.90;4.93;;;9.90;99.90;;;;;;5049352;28;20431;-68
2021/05/29 04:02:55;;;;;;;4.83;4.07;;;10.00;99.90;;;;;;5049232;28;21254;-69
2021/05/29 04:05:22;;;;;;;6.57;5.00;;;10.00;99.90;;;;;;5051929;28;20439;-68
2021/05/29 04:07:49;;;;;;;6.63;4.03;;;10.00;99.90;;;;;;5051295;28;20192;-69
2021/05/29 04:10:18;;;;;;;7.40;4.60;;;10.00;99.90;;;;;;5051816;28;20439;-69
2021/05/29 04:12:44;;;;;;;6.23;4.27;;;10.00;99.90;;;;;;5049593;28;20986;-68
2021/05/29 04:15:10;;;;;;;10.57;4.90;;;10.10;99.90;;;;;;5051058;28;20542;-68
2021/05/29 04:17:36;;;;;;;6.50;5.00;;;10.10;99.90;;;;;;5052835;28;20442;-68
2021/05/29 04:20:03;;;;;;;5.70;4.73;;;10.10;99.90;;;;;;5051001;28;20435;-69
2021/05/29 04:22:29;;;;;;;5.97;4.33;;;10.10;99.90;;;;;;5050942;28;20455;-68
2021/05/29 04:24:55;;;;;;;5.00;4.37;;;10.10;99.90;;;;;;5050316;28;20475;-68
2021/05/29 04:27:21;;;;;;;5.20;4.40;;;10.10;99.90;;;;;;5049980;28;20185;-69
2021/05/29 04:29:46;;;;;;;5.97;4.20;;;10.10;99.90;;;;;;5047460;28;20231;-69
2021/05/29 04:32:12;;;;;;;7.73;3.73;;;10.10;99.90;;;;;;5050798;28;20923;-68
2021/05/29 04:34:38;;;;;;;5.53;4.00;;;10.10;99.90;;;;;;5051043;28;20192;-68
2021/05/29 04:37:04;;;;;;;3.93;3.40;;;10.10;99.90;;;;;;5052742;28;20215;-69
2021/05/29 04:39:30;;;;;;;7.97;4.67;;;10.00;99.90;;;;;;5049205;28;20622;-69
2021/05/29 04:41:56;;;;;;;4.70;3.50;;;10.10;99.90;;;;;;5049318;28;20443;-68
2021/05/29 04:44:22;;;;;;;4.93;4.43;;;10.10;99.90;;;;;;5049415;28;20213;-69
2021/05/29 04:46:51;;;;;;;5.30;4.80;;;10.00;99.90;;;;;;5050188;28;20682;-68
2021/05/29 04:49:19;;;;;;;7.30;4.20;;;10.10;99.90;;;;;;5048388;28;20197;-69
2021/05/29 04:51:46;;;;;;;7.20;4.80;;;10.10;99.90;;;;;;5050459;28;20439;-69
2021/05/29 04:54:12;;;;;;;4.53;4.10;;;10.20;99.90;;;;;;5051967;28;20530;-69
2021/05/29 04:56:39;;;;;;;9.67;4.23;;;10.20;99.90;;;;;;5049033;28;20451;-69
2021/05/29 04:59:05;;;;;;;5.97;3.93;;;10.20;99.90;;;;;;5047790;28;20892;-68
2021/05/29 05:01:31;;;;;;;5.60;4.43;;;10.20;99.90;;;;;;5047271;28;20748;-68
2021/05/29 05:04:02;;;;;;;8.93;4.17;;;10.20;99.90;;;;;;5048554;28;20435;-68
2021/05/29 05:06:29;;;;;;;5.00;4.50;;;10.20;99.90;;;;;;5049327;28;20908;-69
2021/05/29 05:08:55;;;;;;;4.50;3.87;;;10.20;99.90;;;;;;5050619;28;20424;-68
2021/05/29 05:11:22;;;;;;;4.93;4.13;;;10.20;99.90;;;;;;5048110;28;20431;-69
2021/05/29 05:13:48;;;;;;;5.63;4.40;;;10.20;99.90;;;;;;5050555;28;20783;-69
2021/05/29 05:16:14;;;;;;;5.17;4.63;;;10.20;99.90;;;;;;5051721;28;20451;-69
2021/05/29 05:18:40;;;;;;;5.00;4.50;;;10.20;99.90;;;;;;5047305;28;20185;-69
2021/05/29 05:21:06;;;;;;;6.43;4.50;;;10.30;99.90;;;;;;5046861;28;20530;-69
2021/05/29 05:23:32;;;;;;;6.10;4.60;;;10.20;99.90;;;;;;5049618;28;20200;-69
2021/05/29 05:25:58;;;;;;;4.37;3.97;;;10.30;99.90;;;;;;5049008;28;20312;-68
2021/05/29 05:28:29;;;;;;;8.50;5.23;;;10.30;99.90;;;;;;5050719;28;20432;-69
2021/05/29 05:30:56;;;;;;;5.27;4.37;;;10.30;99.90;;;;;;5044797;28;20173;-68
2021/05/29 05:33:22;;;;;;;7.60;4.07;;;10.40;99.90;;;;;;5050938;28;20777;-69
2021/05/29 05:35:48;;;;;;;5.60;4.20;;;10.40;99.90;;;;;;5047276;28;20495;-69
2021/05/29 05:38:15;;;;;;;5.27;4.60;;;10.50;99.90;;;;;;5048957;28;20435;-69
2021/05/29 05:40:40;;;;;;;6.90;5.10;;;10.50;99.90;;;;;;5049593;28;20431;-69
2021/05/29 05:43:07;;;;;;;7.00;4.87;;;10.50;99.90;;;;;;5048270;28;20913;-69
2021/05/29 05:45:32;;;;;;;7.40;4.97;;;10.50;99.90;;;;;;5048295;28;20189;-69
2021/05/29 05:47:58;;;;;;;5.97;4.17;;;10.60;99.90;;;;;;5048869;28;20468;-68
2021/05/29 05:50:24;;;;;;;5.00;4.43;;;10.60;99.90;;;;;;5050657;28;20224;-69
2021/05/29 05:52:49;;;;;;;4.67;4.27;;;10.60;99.90;;;;;;5043443;28;20238;-69
2021/05/29 05:55:15;;;;;;;5.10;4.57;;;10.60;99.90;;;;;;5043876;28;20583;-69
2021/05/29 05:57:41;;;;;;;4.97;4.10;;;10.50;99.90;;;;;;5047014;28;20185;-68
2021/05/29 06:00:09;;;;;;;7.20;4.00;;;10.50;99.90;;;;;;5049471;28;20432;-69
2021/05/29 06:02:35;;;;;;;7.20;4.60;;;10.50;99.90;;;;;;5047604;28;20436;-69
2021/05/29 06:05:01;;;;;;;5.27;4.03;;;10.50;99.90;;;;;;5044198;28;20767;-68
2021/05/29 06:07:26;;;;;;;8.00;4.40;;;10.50;99.90;;;;;;5047469;28;20188;-69
2021/05/29 06:09:52;;;;;;;5.90;4.40;;;10.50;99.90;;;;;;5047683;28;20591;-69
2021/05/29 06:12:18;;;;;;;6.27;4.97;;;10.50;99.90;;;;;;5047060;28;20189;-69
2021/05/29 06:20:13;;;;;;;7.17;4.33;;;10.50;99.90;;;;;;5046375;28;20468;-69
2021/05/29 06:22:40;;;;;;;5.10;4.60;;;10.60;99.90;;;;;;5042695;28;20435;-69
2021/05/29 06:25:08;;;;;;;5.10;4.60;;;10.50;99.90;;;;;;5044385;28;20777;-68
2021/05/29 06:27:34;;;;;;;4.77;4.30;;;10.50;99.90;;;;;;5047752;28;20439;-69
2021/05/29 06:29:59;;;;;;;4.50;3.97;;;10.50;99.90;;;;;;5047555;28;20470;-69
2021/05/29 06:32:25;;;;;;;11.73;4.70;;;10.50;99.90;;;;;;5045592;28;20617;-69
2021/05/29 06:34:51;;;;;;;9.80;4.80;;;10.50;99.90;;;;;;5043701;28;20205;-69
2021/05/29 06:37:17;;;;;;;5.83;4.57;;;10.50;99.90;;;;;;5048760;28;20974;-69
2021/05/29 06:39:45;;;;;;;4.70;4.20;;;10.70;99.90;;;;;;5048193;28;20173;-69
2021/05/29 06:42:11;;;;;;;6.27;4.70;;;10.60;99.90;;;;;;5045498;28;20187;-69
2021/05/29 06:44:37;;;;;;;4.27;3.97;;;10.60;99.90;;;;;;5042494;28;20428;-69
2021/05/29 06:47:04;;;;;;;4.93;4.30;;;10.70;99.90;;;;;;5041049;28;20508;-69
2021/05/29 06:49:29;;;;;;;6.90;3.97;;;10.80;99.90;;;;;;5042788;28;20542;-69
2021/05/29 06:52:05;;;;;;;8.67;4.60;;;10.80;99.90;;;;;;5045845;28;20514;-69
2021/05/29 06:59:58;;;;;;;7.97;4.30;;;11.00;99.90;;;;;;5048776;28;20447;-69
2021/05/29 07:02:24;;;;;;;4.60;4.17;;;11.00;99.90;;;;;;5045714;28;20462;-68
2021/05/29 07:04:51;;;;;;;4.10;3.70;;;11.00;99.90;;;;;;5044119;28;20622;-69
2021/05/29 07:07:17;;;;;;;6.77;4.20;;;11.00;99.90;;;;;;5046677;28;20201;-69
2021/05/29 07:09:43;;;;;;;4.33;3.93;;;11.00;99.90;;;;;;5050801;28;20466;-69
2021/05/29 07:12:09;;;;;;;7.03;5.17;;;10.90;99.90;;;;;;5046177;28;20936;-69
2021/05/29 07:14:34;;;;;;;7.10;3.90;;;11.00;99.90;;;;;;5046663;28;20184;-69
2021/05/29 07:17:02;;;;;;;4.40;4.00;;;11.10;99.90;;;;;;5050224;28;20185;-69
2021/05/29 07:19:28;;;;;;;4.63;4.23;;;11.10;99.90;;;;;;5045617;28;20184;-68
2021/05/29 07:21:54;;;;;;;5.07;4.57;;;11.10;99.90;;;;;;5049223;28;20772;-69
2021/05/29 07:24:20;;;;;;;9.00;4.30;;;11.10;99.90;;;;;;5049680;28;20178;-68
2021/05/29 07:26:47;;;;;;;4.63;4.00;;;11.10;99.90;;;;;;5050950;28;20851;-69
2021/05/29 07:29:13;;;;;;;5.20;4.53;;;11.10;99.90;;;;;;5049499;28;20444;-69
2021/05/29 07:31:39;;;;;;;5.70;5.20;;;11.20;99.90;;;;;;5048894;28;20504;-69
2021/05/29 07:34:05;;;;;;;11.30;4.90;;;11.30;99.90;;;;;;5045523;28;20435;-69
2021/05/29 07:36:31;;;;;;;5.43;4.83;;;11.30;99.90;;;;;;5043039;28;20462;-69
2021/05/29 07:38:57;;;;;;;7.93;5.17;;;11.30;99.90;;;;;;5038729;28;20178;-69
2021/05/29 07:41:23;;;;;;;7.47;5.13;;;11.30;99.90;;;;;;5045041;28;20670;-69
2021/05/29 07:43:49;;;;;;;5.50;5.00;;;11.30;99.90;;;;;;5045653;28;20189;-69
2021/05/29 07:46:16;;;;;;;6.47;5.57;;;11.50;99.90;;;;;;5048859;28;20884;-69
2021/05/29 07:48:43;;;;;;;8.70;6.53;;;11.50;99.90;;;;;;5046343;28;20190;-69
2021/05/29 07:51:09;;;;;;;7.80;5.27;;;11.50;99.90;;;;;;5042958;28;20521;-69
2021/05/29 07:53:42;;;;;;;5.77;5.07;;;11.60;99.90;;;;;;5038367;28;21134;-69
2021/05/29 07:56:13;;;;;;;9.50;5.67;;;11.70;99.90;;;;;;5040475;28;20539;-69
2021/05/29 07:58:42;;;;;;;7.27;5.47;;;11.70;99.90;;;;;;5043373;28;20434;-69
2021/05/29 08:01:09;;;;;;;6.60;5.53;;;11.70;99.90;;;;;;5041061;28;20443;-69
2021/05/29 08:03:36;;;;;;;6.60;4.53;;;11.70;99.90;;;;;;5044512;28;20960;-69
2021/05/29 08:06:09;;;;;;;6.70;4.50;;;11.80;99.90;;;;;;5047546;28;20435;-69
2021/05/29 08:08:35;;;;;;;6.50;5.00;;;11.90;99.90;;;;;;5048918;28;20514;-69
2021/05/29 08:11:03;;;;;;;5.70;4.87;;;12.00;99.90;;;;;;5045456;28;20569;-68
2021/05/29 08:13:29;;;;;;;4.73;4.33;;;12.10;99.90;;;;;;5045511;28;20177;-69
2021/05/29 08:15:54;;;;;;;4.87;4.47;;;12.10;99.90;;;;;;5045951;28;20574;-69
2021/05/29 08:18:21;;;;;;;5.10;4.60;;;12.10;99.90;;;;;;5047183;28;20252;-68
2021/05/29 08:20:48;;;;;;;5.17;4.73;;;12.00;99.90;;;;;;5045174;28;20713;-69
2021/05/29 08:23:14;;;;;;;4.83;3.80;;;12.10;99.90;;;;;;5051098;28;20427;-69
2021/05/29 08:25:40;;;;;;;4.97;4.57;;;12.10;99.90;;;;;;5043382;28;20436;-69
2021/05/29 08:28:06;;;;;;;4.87;4.30;;;12.20;99.90;;;;;;5046126;28;20912;-69
2021/05/29 08:30:32;;;;;;;5.07;4.30;;;12.20;99.90;;;;;;5049523;28;20522;-69
2021/05/29 08:32:58;;;;;;;4.40;4.00;;;12.40;99.90;;;;;;5046842;28;20187;-69
2021/05/29 08:35:24;;;;;;;5.93;4.40;;;12.40;99.90;;;;;;5049943;28;21004;-69
2021/05/29 08:37:50;;;;;;;5.93;5.30;;;12.50;99.90;;;;;;5046267;28;20191;-68
2021/05/29 08:40:18;;;;;;;4.80;4.40;;;12.50;99.90;;;;;;5047013;28;20511;-68
2021/05/29 08:42:45;;;;;;;5.07;4.67;;;12.50;99.90;;;;;;5045959;28;20568;-68
2021/05/29 08:45:13;;;;;;;5.80;4.03;;;12.60;99.90;;;;;;5045000;28;20490;-69
2021/05/29 08:47:39;;;;;;;7.33;5.60;;;12.70;99.90;;;;;;5047202;28;20902;-69
2021/05/29 08:50:06;;;;;;;4.77;4.23;;;12.80;99.90;;;;;;5053112;28;20455;-69
2021/05/29 08:52:36;;;;;;;9.03;5.43;;;12.90;99.90;;;;;;5042813;28;20431;-69
2021/05/29 08:55:08;;;;;;;6.97;5.13;;;13.00;99.90;;;;;;5048012;28;21176;-69
2021/05/29 08:57:34;;;;;;;5.10;4.70;;;13.00;99.90;;;;;;5045182;28;20470;-69
2021/05/29 09:00:00;;;;;;;7.07;5.70;;;13.10;99.90;;;;;;5043463;28;20968;-69
2021/05/29 09:02:27;;;;;;;5.30;4.80;;;13.00;99.90;;;;;;5047145;28;20466;-69
2021/05/29 09:05:19;;;;;;;5.20;4.77;;;12.80;99.90;;;;;;5047863;28;20518;-69
2021/05/29 09:07:46;;;;;;;5.10;4.60;;;12.90;99.90;;;;;;5045919;28;20531;-69
2021/05/29 09:10:20;;;;;;;4.80;4.40;;;13.00;99.90;;;;;;5051485;28;20435;-69
2021/05/29 09:12:59;;;;;;;6.10;5.27;;;13.10;99.90;;;;;;5051380;28;20454;-69
2021/05/29 09:16:02;;;;;;;5.50;4.40;;;13.20;99.90;;;;;;5047784;28;20470;-69
2021/05/29 09:18:37;;;;;;;5.70;4.37;;;13.20;99.90;;;;;;5038824;28;20427;-69
2021/05/29 09:21:34;;;;;;;3.97;3.57;;;13.20;99.90;;;;;;5050889;28;20931;-70
2021/05/29 09:24:11;;;;;;;5.80;4.63;;;13.20;99.90;;;;;;5045838;28;20470;-69
2021/05/29 09:26:46;;;;;;;6.63;4.53;;;13.30;99.90;;;;;;5050758;28;20538;-69
2021/05/29 09:29:29;;;;;;;7.10;4.70;;;13.30;99.90;;;;;;5051883;28;20805;-69
2021/05/29 09:32:01;;;;;;;5.67;4.90;;;13.40;99.90;;;;;;5041990;28;20441;-69
2021/05/29 09:34:28;;;;;;;4.03;3.73;;;13.50;99.90;;;;;;5047932;28;20419;-69
2021/05/29 09:37:03;;;;;;;5.93;4.40;;;13.50;99.90;;;;;;5046749;28;20459;-68
2021/05/29 09:39:31;;;;;;;5.13;4.73;;;13.70;99.90;;;;;;5041786;28;20454;-69
2021/05/29 09:42:00;;;;;;;4.33;3.93;;;13.80;99.90;;;;;;5041696;28;21003;-69
2021/05/29 09:44:29;;;;;;;7.70;6.10;;;13.80;99.90;;;;;;5045224;28;20431;-69
2021/05/29 09:46:57;;;;;;;5.43;4.50;;;13.80;99.90;;;;;;5044547;28;20431;-69
2021/05/29 09:49:41;;;;;;;6.63;5.70;;;13.70;99.90;;;;;;5046423;28;20540;-69
2021/05/29 09:52:37;;;;;;;5.33;4.87;;;13.50;99.90;;;;;;5044844;28;20432;-69
2021/05/29 09:55:12;;;;;;;4.83;4.43;;;13.60;99.90;;;;;;5033244;28;20495;-70
2021/05/29 09:57:59;;;;;;;6.97;5.20;;;13.80;99.90;;;;;;5041625;28;20514;-76
2021/05/29 10:00:42;;;;;;;8.40;6.30;;;13.90;99.90;;;;;;5040010;28;20927;-77
2021/05/29 10:03:08;;;;;;;9.00;5.90;;;13.90;99.90;;;;;;5044575;28;20473;-77
2021/05/29 10:05:39;;;;;;;5.87;5.37;;;13.90;99.90;;;;;;5041515;28;20432;-76
2021/05/29 10:08:06;;;;;;;7.47;5.80;;;13.80;99.90;;;;;;5033866;28;20925;-75
2021/05/29 10:10:35;;;;;;;8.87;6.87;;;13.80;99.90;;;;;;5040359;28;20439;-77
2021/05/29 10:13:02;;;;;;;10.40;6.40;;;13.70;99.90;;;;;;5038862;28;20444;-76
2021/05/29 10:15:28;;;;;;;7.53;6.37;;;13.80;99.90;;;;;;5036785;28;20932;-75
2021/05/29 10:17:57;;;;;;;9.20;6.67;;;13.80;99.90;;;;;;5058526;28;20428;-75
2021/05/29 10:20:24;;;;;;;9.60;7.90;;;13.90;99.90;;;;;;5035867;28;20185;-76
2021/05/29 10:22:50;;;;;;;7.07;6.37;;;13.90;99.90;;;;;;5038861;28;20435;-75
2021/05/29 10:25:18;;;;;;;7.77;6.40;;;13.90;99.90;;;;;;5030979;28;20436;-75
2021/05/29 10:27:53;;;;;;;10.10;6.80;;;14.00;99.90;;;;;;5036813;28;20451;-75
2021/05/29 10:30:21;;;;;;;7.13;5.90;;;14.10;99.90;;;;;;5047095;28;20903;-75
2021/05/29 10:33:17;;;;;;;7.00;5.93;;;14.30;99.90;;;;;;5040025;28;20439;-75
2021/05/29 10:35:43;;;;;;;9.00;6.40;;;14.60;99.90;;;;;;5043946;28;20803;-75
2021/05/29 10:38:09;;;;;;;5.93;5.23;;;14.60;99.90;;;;;;5045760;28;20905;-75
2021/05/29 10:40:42;;;;;;;11.13;6.43;;;14.60;99.90;;;;;;5047490;28;20432;-76
2021/05/29 10:43:13;;;;;;;5.70;5.10;;;14.70;99.90;;;;;;5043967;28;20951;-75
2021/05/29 10:45:58;;;;;;;6.07;5.43;;;14.70;99.90;;;;;;5040624;28;20907;-75
2021/05/29 10:48:25;;;;;;;5.80;4.93;;;14.60;99.90;;;;;;5034664;28;20532;-75
2021/05/29 10:51:10;;;;;;;5.17;4.57;;;14.90;99.90;;;;;;5036377;28;20519;-75
2021/05/29 10:53:55;;;;;;;5.17;4.67;;;15.00;99.90;;;;;;5046038;28;20994;-75
2021/05/29 10:56:23;;;;;;;8.80;5.30;;;15.00;99.90;;;;;;5045873;28;20460;-76
2021/05/29 10:59:13;;;;;;;7.00;4.90;;;14.90;99.90;;;;;;5046296;28;20436;-76
2021/05/29 11:01:42;;;;;;;6.23;5.73;;;14.80;99.90;;;;;;5041202;28;20535;-76
2021/05/29 11:06:47;;;;;;;4.40;4.00;;;14.70;99.90;;;;;;5040388;28;20526;-77
2021/05/29 11:09:14;;;;;;;6.20;5.30;;;14.80;99.90;;;;;;5038049;28;21004;-77
2021/05/29 11:11:47;;;;;;;5.00;4.50;;;14.90;99.90;;;;;;5041548;28;20432;-75
2021/05/29 11:14:30;;;;;;;8.13;5.00;;;14.80;99.90;;;;;;5043242;28;20838;-75
2021/05/29 11:16:58;;;;;;;9.97;5.00;;;14.70;99.90;;;;;;5044749;28;20521;-76
2021/05/29 11:19:26;;;;;;;7.23;4.50;;;14.70;99.90;;;;;;5039973;28;21243;-76
2021/05/29 11:22:01;;;;;;;5.17;4.67;;;14.90;99.90;;;;;;5040682;28;21287;-75
2021/05/29 11:24:28;;;;;;;4.37;4.07;;;15.00;99.90;;;;;;5039603;28;20430;-75
2021/05/29 11:26:54;;;;;;;4.70;4.10;;;15.00;99.90;;;;;;5043414;28;20815;-75
2021/05/29 11:29:20;;;;;;;4.83;4.50;;;14.90;99.90;;;;;;5046163;28;20441;-75
2021/05/29 11:31:48;;;;;;;5.57;4.90;;;15.00;99.90;;;;;;5045608;28;20641;-75
2021/05/29 11:34:14;;;;;;;6.30;5.07;;;14.80;99.90;;;;;;5038640;28;20497;-75
2021/05/29 11:36:43;;;;;;;5.50;4.97;;;14.80;99.90;;;;;;5043053;28;20464;-77
2021/05/29 11:39:14;;;;;;;5.03;4.60;;;15.00;99.90;;;;;;5045218;28;20231;-76
2021/05/29 11:41:43;;;;;;;5.97;5.10;;;15.10;99.90;;;;;;5048196;28;20502;-75
2021/05/29 11:44:23;;;;;;;7.87;6.23;;;15.10;99.90;;;;;;5047621;28;20439;-76
2021/05/29 11:46:49;;;;;;;6.13;5.63;;;15.10;99.90;;;;;;5047724;28;20439;-76
2021/05/29 11:49:14;;;;;;;6.77;5.50;;;15.00;99.90;;;;;;5050009;28;20462;-75
2021/05/29 11:51:45;;;;;;;5.37;4.97;;;15.00;99.90;;;;;;5040380;28;20196;-75
2021/05/29 11:54:17;;;;;;;4.80;4.40;;;15.00;99.90;;;;;;5048846;28;20178;-75
2021/05/29 11:56:45;;;;;;;7.60;5.87;;;15.10;99.90;;;;;;5046162;28;20499;-75
2021/05/29 11:59:13;;;;;;;5.70;5.30;;;15.10;99.90;;;;;;5041289;28;23118;-75
2021/05/29 12:01:40;;;;;;;6.97;5.00;;;15.00;99.90;;;;;;5048220;28;20857;-74
2021/05/29 12:04:17;;;;;;;5.70;4.20;;;15.00;99.90;;;;;;5043912;28;20900;-75
2021/05/29 12:06:55;;;;;;;4.60;4.23;;;15.20;99.90;;;;;;5045612;28;20799;-74
2021/05/29 12:09:25;;;;;;;4.50;4.10;;;15.50;99.90;;;;;;5045550;28;20969;-74
2021/05/29 12:12:02;;;;;;;3.70;3.40;;;15.50;99.90;;;;;;5051146;28;20466;-75
2021/05/29 12:14:39;;;;;;;5.83;3.93;;;15.30;99.90;;;;;;5051201;28;21030;-75
2021/05/29 12:17:06;;;;;;;6.20;4.40;;;15.40;99.90;;;;;;5047056;28;20492;-75
2021/05/29 12:19:34;;;;;;;5.27;3.93;;;15.40;99.90;;;;;;5050764;28;20430;-75
2021/05/29 12:22:08;;;;;;;4.80;4.37;;;15.30;99.90;;;;;;5042454;28;20439;-75
2021/05/29 12:24:45;;;;;;;5.40;5.00;;;15.30;99.90;;;;;;5042651;28;20432;-74
2021/05/29 12:27:16;;;;;;;5.33;4.93;;;15.00;99.90;;;;;;5049291;28;20431;-72
2021/05/29 12:29:42;;;;;;;4.67;4.27;;;15.20;99.90;;;;;;5051724;28;20430;-72
2021/05/29 12:32:10;;;;;;;5.40;4.10;;;15.30;99.90;;;;;;5043178;28;20433;-73
2021/05/29 12:34:47;;;;;;;4.93;4.20;;;15.50;99.90;;;;;;5049561;28;20482;-71
2021/05/29 12:37:15;;;;;;;4.23;3.80;;;15.30;99.90;;;;;;5050967;28;20428;-73
2021/05/29 12:39:46;;;;;;;4.37;3.97;;;15.30;99.90;;;;;;5045840;28;20473;-73
2021/05/29 12:42:28;;;;;;;6.53;4.50;;;15.40;99.90;;;;;;5047573;28;20909;-74
2021/05/29 12:44:59;;;;;;;4.77;4.30;;;15.50;99.90;;;;;;5044008;28;20813;-74
2021/05/29 12:47:27;;;;;;;4.70;4.40;;;15.60;99.90;;;;;;5046036;28;20430;-73
2021/05/29 12:49:53;;;;;;;4.50;4.10;;;15.60;99.90;;;;;;5045375;28;20444;-73
2021/05/29 12:52:24;;;;;;;4.50;4.13;;;15.60;99.90;;;;;;5050830;28;20764;-73
2021/05/29 12:54:50;;;;;;;3.63;3.43;;;15.80;99.90;;;;;;5049356;28;20691;-74
2021/05/29 12:57:17;;;;;;;7.10;4.03;;;15.80;99.90;;;;;;5048281;28;20439;-74
2021/05/29 12:59:43;;;;;;;3.80;3.50;;;16.00;99.90;;;;;;5042731;28;20771;-73
2021/05/29 13:07:40;;;;;;;13.63;3.90;;;15.80;99.90;;;;;;5033524;28;20200;-73
2021/05/29 13:12:58;;;;;;;3.57;3.37;;;15.60;99.90;;;;;;5046739;28;20422;-74